Time;durP1;ratioP1;P1;durP2;ratioP2;P2;SDS_P1;SDS_P2;PMS_P1;PMS_P2;Temp;Humidity;BMP_temperature;BMP_pressure;BME280_temperature;BME280_humidity;BME280_pressure;Samples;Min_cycle;Max_cycle;Signal;HPM_P1;HPM_P2
2023/01/15 00:01:30;;;;;;;13.30;2.78;;;9.10;92.50;;;;;;5033467;28;20467;-73
2023/01/15 00:03:58;;;;;;;9.95;2.22;;;9.20;92.60;;;;;;5036217;28;20075;-74
2023/01/15 00:06:25;;;;;;;15.70;2.70;;;9.20;93.10;;;;;;5049794;28;20063;-73
2023/01/15 00:08:51;;;;;;;12.30;2.10;;;9.10;93.30;;;;;;5035097;28;20104;-73
2023/01/15 00:11:17;;;;;;;7.22;1.48;;;9.20;93.20;;;;;;5033398;28;20128;-73
2023/01/15 00:13:43;;;;;;;8.00;2.05;;;9.20;93.20;;;;;;5029190;28;20034;-74
2023/01/15 00:16:13;;;;;;;16.25;2.72;;;9.20;93.20;;;;;;5048493;28;20060;-73
2023/01/15 00:18:39;;;;;;;13.95;3.30;;;9.20;93.20;;;;;;5059499;28;20033;-73
2023/01/15 00:21:07;;;;;;;13.13;2.67;;;9.20;93.30;;;;;;5046793;28;20021;-73
2023/01/15 00:29:03;;;;;;;11.32;2.28;;;9.20;93.30;;;;;;5033496;28;20052;-73
2023/01/15 00:31:30;;;;;;;7.38;1.35;;;9.20;93.60;;;;;;5038292;28;20125;-73
2023/01/15 00:33:56;;;;;;;15.48;2.50;;;9.20;94.00;;;;;;5035916;28;20547;-73
2023/01/15 00:36:22;;;;;;;12.55;2.85;;;9.10;93.60;;;;;;5034273;28;20124;-73
2023/01/15 00:38:47;;;;;;;14.45;2.25;;;9.00;93.70;;;;;;5012969;28;20045;-73
2023/01/15 00:41:13;;;;;;;14.25;2.38;;;9.00;94.00;;;;;;5041290;28;20019;-73
2023/01/15 00:43:38;;;;;;;14.00;2.30;;;9.00;93.90;;;;;;5044825;28;20433;-73
2023/01/15 00:46:04;;;;;;;13.25;1.70;;;9.00;93.90;;;;;;5038441;28;20044;-73
2023/01/15 00:48:30;;;;;;;15.70;2.25;;;8.80;93.70;;;;;;5060973;28;20025;-73
2023/01/15 00:50:57;;;;;;;11.50;2.50;;;8.90;93.80;;;;;;5022547;28;20111;-73
2023/01/15 00:53:22;;;;;;;13.60;2.20;;;8.80;93.80;;;;;;5047302;28;20107;-73
2023/01/15 00:55:48;;;;;;;14.25;2.00;;;8.80;93.60;;;;;;5038208;28;20147;-73
2023/01/15 00:58:13;;;;;;;9.73;2.22;;;8.70;93.70;;;;;;5044475;28;20024;-73
2023/01/15 01:00:39;;;;;;;14.32;2.72;;;8.70;94.10;;;;;;5028233;28;20044;-73
2023/01/15 01:03:05;;;;;;;11.75;2.05;;;8.70;94.00;;;;;;5049148;28;20032;-73
2023/01/15 01:05:31;;;;;;;12.18;2.42;;;8.80;93.80;;;;;;5054432;28;20041;-73
2023/01/15 01:07:58;;;;;;;13.18;2.50;;;8.80;93.50;;;;;;5052273;28;20028;-73
2023/01/15 01:10:24;;;;;;;12.65;2.50;;;8.70;93.20;;;;;;5048001;28;20020;-73
2023/01/15 01:12:51;;;;;;;11.15;2.17;;;8.70;93.20;;;;;;5040902;28;20112;-73
2023/01/15 01:15:18;;;;;;;13.93;2.30;;;8.70;93.40;;;;;;5039545;28;20029;-73
2023/01/15 01:17:44;;;;;;;11.80;3.03;;;8.70;93.30;;;;;;5035663;28;20030;-74
2023/01/15 01:20:13;;;;;;;11.73;3.08;;;8.70;92.90;;;;;;5033841;28;20492;-73
2023/01/15 01:22:38;;;;;;;9.82;2.10;;;8.70;93.40;;;;;;5046926;28;20383;-73
2023/01/15 01:25:05;;;;;;;14.60;2.70;;;8.70;93.10;;;;;;5052350;28;20048;-73
2023/01/15 01:27:30;;;;;;;13.63;3.08;;;8.70;92.80;;;;;;5039481;28;20403;-72
2023/01/15 01:29:56;;;;;;;10.82;2.92;;;8.70;93.10;;;;;;5023924;28;20131;-71
2023/01/15 01:32:21;;;;;;;18.90;2.72;;;8.70;92.80;;;;;;5031151;28;20036;-72
2023/01/15 01:34:47;;;;;;;17.13;2.45;;;8.70;92.90;;;;;;5057987;28;20023;-72
2023/01/15 01:37:13;;;;;;;14.07;2.00;;;8.70;92.70;;;;;;5039922;28;20025;-73
2023/01/15 01:39:39;;;;;;;12.32;2.35;;;8.70;92.60;;;;;;5051314;28;20044;-72
2023/01/15 01:42:16;;;;;;;12.13;2.78;;;8.60;92.60;;;;;;5029174;28;20792;-73
2023/01/15 01:44:42;;;;;;;13.82;3.05;;;8.60;92.60;;;;;;5040941;28;20108;-73
2023/01/15 01:47:21;;;;;;;19.48;3.10;;;8.60;92.60;;;;;;5032396;28;20104;-71
2023/01/15 01:49:52;;;;;;;17.00;2.53;;;8.50;92.50;;;;;;5057574;28;20021;-72
2023/01/15 01:52:22;;;;;;;12.05;2.40;;;8.60;93.00;;;;;;5032092;28;20026;-73
2023/01/15 01:54:49;;;;;;;15.82;3.33;;;8.60;93.00;;;;;;5049971;28;20020;-72
2023/01/15 01:57:16;;;;;;;13.68;2.55;;;8.60;93.10;;;;;;5048196;28;20771;-73
2023/01/15 01:59:42;;;;;;;14.43;2.78;;;8.70;93.20;;;;;;5055788;28;20026;-72
2023/01/15 02:02:08;;;;;;;14.68;2.17;;;8.60;92.50;;;;;;5048816;28;20052;-72
2023/01/15 02:04:36;;;;;;;13.93;2.53;;;8.50;92.40;;;;;;5046463;28;20052;-73
2023/01/15 02:07:03;;;;;;;17.85;3.38;;;8.60;92.70;;;;;;5056233;28;20059;-72
2023/01/15 02:09:28;;;;;;;11.23;2.47;;;8.60;92.60;;;;;;5025360;28;20033;-73
2023/01/15 02:11:59;;;;;;;14.82;2.63;;;8.60;92.20;;;;;;5039414;28;20029;-73
2023/01/15 02:14:54;;;;;;;;;;;8.50;92.50;;;;;;5050346;28;20027;-72
2023/01/15 02:17:27;;;;;;;17.00;2.95;;;8.50;92.20;;;;;;5025384;28;19909;-72
2023/01/15 02:20:12;;;;;;;13.10;1.92;;;8.50;92.10;;;;;;5054770;28;20095;-75
2023/01/15 02:22:55;;;;;;;7.63;1.98;;;8.50;92.20;;;;;;5055653;28;20041;-74
2023/01/15 02:26:13;;;;;;;9.25;2.67;;;8.50;92.30;;;;;;5047647;28;20049;-73
2023/01/15 02:28:45;;;;;;;16.23;2.80;;;8.40;92.10;;;;;;5013879;28;20055;-73
2023/01/15 02:31:24;;;;;;;13.63;2.17;;;8.50;92.30;;;;;;5050995;28;20671;-72
2023/01/15 02:34:02;;;;;;;15.82;1.90;;;8.50;92.30;;;;;;5033595;28;20530;-73
2023/01/15 02:36:31;;;;;;;11.02;1.80;;;8.50;92.50;;;;;;5049193;28;20032;-73
2023/01/15 02:39:01;;;;;;;17.83;2.92;;;8.50;92.60;;;;;;5032067;28;20036;-73
2023/01/15 02:41:34;;;;;;;14.75;2.67;;;8.50;92.30;;;;;;5052260;28;20021;-73
2023/01/15 02:44:04;;;;;;;8.90;2.20;;;8.50;92.40;;;;;;5043825;28;20460;-73
2023/01/15 02:46:33;;;;;;;10.27;2.80;;;8.50;92.50;;;;;;5045754;28;20039;-73
2023/01/15 02:49:02;;;;;;;11.57;2.53;;;8.50;93.20;;;;;;5031620;28;20029;-72
2023/01/15 02:51:35;;;;;;;10.13;2.60;;;8.50;92.80;;;;;;5044333;28;20442;-74
2023/01/15 02:54:05;;;;;;;17.67;2.30;;;8.40;92.80;;;;;;5030637;28;20472;-74
2023/01/15 02:56:34;;;;;;;;;;;8.40;92.60;;;;;;5057923;28;20023;-73
2023/01/15 02:59:09;;;;;;;21.70;3.78;;;8.40;92.90;;;;;;5040410;28;20022;-72
2023/01/15 03:01:59;;;;;;;20.38;4.03;;;8.30;92.60;;;;;;5035913;28;20040;-75
2023/01/15 03:04:48;;;;;;;17.45;2.90;;;8.20;92.70;;;;;;5041091;28;20104;-72
2023/01/15 03:07:20;;;;;;;17.80;3.67;;;8.30;92.90;;;;;;5056468;28;20474;-72
2023/01/15 03:09:47;;;;;;;16.45;2.80;;;8.20;93.00;;;;;;5038321;28;20033;-73
2023/01/15 03:13:04;;;;;;;17.25;2.97;;;8.20;93.20;;;;;;5047525;28;20159;-72
2023/01/15 03:18:52;;;;;;;11.48;2.17;;;8.20;93.10;;;;;;5042478;28;20044;-72
2023/01/15 03:21:24;;;;;;;12.23;2.38;;;8.10;93.10;;;;;;5039744;28;20029;-72
2023/01/15 03:23:53;;;;;;;10.93;1.92;;;8.10;93.00;;;;;;5045101;28;20028;-72
2023/01/15 03:26:19;;;;;;;12.47;2.10;;;8.20;93.20;;;;;;5051958;28;20120;-73
2023/01/15 03:28:47;;;;;;;16.25;2.88;;;8.20;93.10;;;;;;5028899;28;20494;-73
2023/01/15 03:31:13;;;;;;;18.25;2.92;;;8.20;93.10;;;;;;5036197;28;20380;-73
2023/01/15 03:33:40;;;;;;;12.45;1.95;;;8.20;93.30;;;;;;5068312;28;20474;-73
2023/01/15 03:36:07;;;;;;;10.77;2.78;;;8.10;93.00;;;;;;5033690;28;20029;-72
2023/01/15 03:38:37;;;;;;;16.08;2.50;;;8.10;93.10;;;;;;5052625;28;20028;-72
2023/01/15 03:41:28;;;;;;;17.92;4.10;;;8.10;93.50;;;;;;5012176;28;20021;-71
2023/01/15 03:44:26;;;;;;;11.57;2.03;;;8.10;93.30;;;;;;5034079;28;20092;-72
2023/01/15 03:47:05;;;;;;;17.10;2.30;;;8.10;93.00;;;;;;5034736;28;20037;-72
2023/01/15 03:49:55;;;;;;;16.42;2.53;;;8.00;92.70;;;;;;5043031;28;20116;-73
2023/01/15 03:52:32;;;;;;;12.18;1.90;;;8.10;92.80;;;;;;5035106;28;20030;-73
2023/01/15 03:55:21;;;;;;;13.30;2.40;;;8.10;93.10;;;;;;5030208;28;20034;-72
2023/01/15 03:57:51;;;;;;;18.75;2.88;;;8.10;92.80;;;;;;5052541;28;20032;-72
2023/01/15 04:00:24;;;;;;;9.90;2.17;;;8.00;92.90;;;;;;5041755;28;20029;-72
2023/01/15 04:02:52;;;;;;;16.40;2.17;;;8.00;93.00;;;;;;5043210;28;20055;-72
2023/01/15 04:05:19;;;;;;;10.90;2.03;;;8.00;92.90;;;;;;5048189;28;20345;-73
2023/01/15 04:07:47;;;;;;;11.57;2.08;;;8.00;93.00;;;;;;5038958;28;20020;-72
2023/01/15 04:10:13;;;;;;;19.38;2.53;;;8.10;93.50;;;;;;5050258;28;20025;-72
2023/01/15 04:12:38;;;;;;;11.90;2.60;;;7.90;92.90;;;;;;5049620;28;20025;-72
2023/01/15 04:15:04;;;;;;;11.90;2.78;;;8.00;93.20;;;;;;5036626;28;20515;-73
2023/01/15 04:17:30;;;;;;;17.88;2.22;;;7.90;93.20;;;;;;5022515;28;20384;-71
2023/01/15 04:19:55;;;;;;;14.15;2.65;;;8.00;93.40;;;;;;5054567;28;20014;-71
2023/01/15 04:22:21;;;;;;;9.85;2.15;;;8.00;93.30;;;;;;5034625;28;20072;-72
2023/01/15 04:24:47;;;;;;;15.57;2.45;;;8.00;93.40;;;;;;5054850;28;20033;-73
2023/01/15 04:27:12;;;;;;;12.27;2.10;;;7.90;92.90;;;;;;5016147;28;20494;-73
2023/01/15 04:29:39;;;;;;;12.30;2.60;;;7.90;93.10;;;;;;5053330;28;20114;-72
2023/01/15 04:32:05;;;;;;;13.63;2.45;;;7.90;93.10;;;;;;5057176;28;20052;-73
2023/01/15 04:34:30;;;;;;;14.40;2.40;;;7.90;93.50;;;;;;5051444;28;20112;-72
2023/01/15 04:36:56;;;;;;;13.05;2.42;;;7.90;93.20;;;;;;5044927;28;20057;-73
2023/01/15 04:39:23;;;;;;;11.85;1.98;;;7.90;93.10;;;;;;5040583;28;20021;-72
2023/01/15 04:44:35;;;;;;;14.15;2.13;;;7.90;93.00;;;;;;5035014;28;20053;-73
2023/01/15 04:47:01;;;;;;;11.68;2.80;;;7.80;93.20;;;;;;5043728;28;20034;-72
2023/01/15 04:49:27;;;;;;;11.75;2.22;;;7.90;93.00;;;;;;5039759;28;20070;-73
2023/01/15 04:51:53;;;;;;;13.63;2.88;;;7.80;92.80;;;;;;5039741;28;20021;-73
2023/01/15 04:54:18;;;;;;;12.40;2.47;;;7.80;93.30;;;;;;5031103;28;20094;-73
2023/01/15 04:56:46;;;;;;;7.60;1.90;;;7.80;93.20;;;;;;5034992;28;20104;-72
2023/01/15 04:59:14;;;;;;;10.20;2.15;;;7.80;93.00;;;;;;5043905;28;20056;-71
2023/01/15 05:01:40;;;;;;;11.48;2.10;;;7.80;93.20;;;;;;5043789;28;20073;-72
2023/01/15 05:04:06;;;;;;;16.20;3.30;;;7.90;93.40;;;;;;5014259;28;20434;-72
2023/01/15 05:06:32;;;;;;;14.90;2.67;;;7.80;93.00;;;;;;5040642;28;20037;-71
2023/01/15 05:08:59;;;;;;;10.40;2.40;;;7.80;93.10;;;;;;5032752;28;20080;-71
2023/01/15 05:11:25;;;;;;;15.40;3.10;;;7.80;93.30;;;;;;5051974;28;20036;-72
2023/01/15 05:13:51;;;;;;;14.80;2.60;;;7.80;93.20;;;;;;5038130;28;20056;-72
2023/01/15 05:16:20;;;;;;;11.55;1.92;;;7.80;93.10;;;;;;5040598;28;20060;-70
2023/01/15 05:18:47;;;;;;;15.07;2.67;;;7.70;93.50;;;;;;5028549;28;20026;-70
2023/01/15 05:21:19;;;;;;;15.88;2.25;;;7.70;93.30;;;;;;5047772;28;20032;-70
2023/01/15 05:23:45;;;;;;;12.52;2.22;;;7.70;93.30;;;;;;5021014;28;20071;-71
2023/01/15 05:26:11;;;;;;;16.92;2.63;;;7.70;93.80;;;;;;5029780;28;20041;-71
2023/01/15 05:28:36;;;;;;;16.50;3.20;;;7.70;93.20;;;;;;5053910;28;20061;-71
2023/01/15 05:31:07;;;;;;;16.00;2.50;;;7.70;92.90;;;;;;5040624;28;20040;-72
2023/01/15 05:33:33;;;;;;;12.75;2.28;;;7.60;93.10;;;;;;5030118;28;20641;-71
2023/01/15 05:36:08;;;;;;;16.95;3.13;;;7.60;93.20;;;;;;5038318;28;20498;-71
2023/01/15 05:38:34;;;;;;;11.45;2.40;;;7.60;93.30;;;;;;5036786;28;20025;-72
2023/01/15 05:41:47;;;;;;;18.90;4.00;;;7.70;93.30;;;;;;5039425;28;20031;-71
2023/01/15 05:43:53;;;;;;;10.68;2.72;;;7.70;93.40;;;;;;5040996;28;20034;-71
2023/01/15 05:46:19;;;;;;;14.18;2.58;;;7.60;93.50;;;;;;5056029;28;20036;-71
2023/01/15 05:48:45;;;;;;;10.90;2.45;;;7.60;93.70;;;;;;5063325;28;20024;-71
2023/01/15 05:51:11;;;;;;;10.32;2.33;;;7.60;93.40;;;;;;5041309;28;20024;-71
2023/01/15 05:53:36;;;;;;;14.55;1.85;;;7.60;93.40;;;;;;5052461;28;20025;-70
2023/01/15 05:56:03;;;;;;;15.25;2.63;;;7.50;93.10;;;;;;5036117;28;20025;-72
2023/01/15 05:58:29;;;;;;;9.57;2.15;;;7.60;93.60;;;;;;5052630;28;20435;-71
2023/01/15 06:00:55;;;;;;;13.27;1.98;;;7.60;94.00;;;;;;5052802;28;20030;-70
2023/01/15 06:03:21;;;;;;;16.13;3.08;;;7.50;92.90;;;;;;5041883;28;20028;-71
2023/01/15 06:05:51;;;;;;;11.85;2.17;;;7.50;93.30;;;;;;5031304;28;20119;-71
2023/01/15 06:08:17;;;;;;;15.13;3.20;;;7.50;93.00;;;;;;5062524;28;20024;-71
2023/01/15 06:10:46;;;;;;;9.23;2.30;;;7.40;93.00;;;;;;5043121;28;20020;-71
2023/01/15 06:13:13;;;;;;;16.42;2.90;;;7.50;93.30;;;;;;5060333;28;20020;-71
2023/01/15 06:15:39;;;;;;;15.00;3.17;;;7.50;93.60;;;;;;5052518;28;20480;-71
2023/01/15 06:18:05;;;;;;;20.98;3.35;;;7.40;93.00;;;;;;5044997;28;20053;-70
2023/01/15 06:20:34;;;;;;;13.63;2.10;;;7.50;93.20;;;;;;5039636;28;20196;-71
2023/01/15 06:22:59;;;;;;;17.23;2.40;;;7.50;92.90;;;;;;5047555;28;20114;-70
2023/01/15 06:25:25;;;;;;;9.70;1.80;;;7.50;93.10;;;;;;5044660;28;20109;-70
2023/01/15 06:27:50;;;;;;;11.10;1.80;;;7.40;92.60;;;;;;5041683;28;20032;-71
2023/01/15 06:30:17;;;;;;;10.25;2.25;;;7.50;92.60;;;;;;5030633;28;20017;-70
2023/01/15 06:32:43;;;;;;;10.60;2.10;;;7.50;92.60;;;;;;5058260;28;20053;-71
2023/01/15 06:35:09;;;;;;;11.50;2.47;;;7.50;92.70;;;;;;5045400;28;20083;-71
2023/01/15 06:37:34;;;;;;;13.40;1.70;;;7.40;92.30;;;;;;5035366;28;20501;-71
2023/01/15 06:40:00;;;;;;;13.68;2.75;;;7.40;92.90;;;;;;5068981;28;20028;-71
2023/01/15 06:47:56;;;;;;;14.00;2.67;;;7.30;92.30;;;;;;5040392;28;20040;-71
2023/01/15 06:50:23;;;;;;;14.65;2.20;;;7.30;92.70;;;;;;5057086;28;20032;-70
2023/01/15 06:52:48;;;;;;;10.13;2.33;;;7.20;92.40;;;;;;5046432;28;20503;-70
2023/01/15 06:55:14;;;;;;;19.42;2.92;;;7.30;93.40;;;;;;5048332;28;20017;-71
2023/01/15 06:57:40;;;;;;;16.58;2.40;;;7.30;93.30;;;;;;5031234;28;20071;-71
2023/01/15 07:00:07;;;;;;;12.18;2.55;;;7.30;93.10;;;;;;5051919;28;20824;-72
2023/01/15 07:02:33;;;;;;;12.07;2.38;;;7.40;93.00;;;;;;5013513;28;20025;-71
2023/01/15 07:04:59;;;;;;;10.85;2.33;;;7.40;93.10;;;;;;5043141;28;20046;-72
2023/01/15 07:07:27;;;;;;;20.08;2.30;;;7.50;93.30;;;;;;5036942;28;20033;-73
2023/01/15 07:09:52;;;;;;;15.55;2.53;;;7.60;93.90;;;;;;5055015;28;20029;-72
2023/01/15 07:12:18;;;;;;;15.45;2.13;;;7.70;93.70;;;;;;5050782;28;20245;-73
2023/01/15 07:14:44;;;;;;;12.52;2.55;;;7.70;94.00;;;;;;5041522;28;20055;-73
2023/01/15 07:17:10;;;;;;;12.93;2.00;;;7.70;93.60;;;;;;5049910;28;20037;-73
2023/01/15 07:19:36;;;;;;;12.57;2.33;;;7.70;93.90;;;;;;5049189;28;20013;-71
2023/01/15 07:22:02;;;;;;;10.32;2.13;;;7.70;93.70;;;;;;5053685;28;20029;-73
2023/01/15 07:24:27;;;;;;;15.20;3.03;;;7.60;93.60;;;;;;5047458;28;20040;-73
2023/01/15 07:26:53;;;;;;;10.52;1.80;;;7.60;93.80;;;;;;5037708;28;20079;-72
2023/01/15 07:29:19;;;;;;;8.82;1.73;;;7.60;93.80;;;;;;5016832;28;20150;-72
2023/01/15 07:31:45;;;;;;;17.45;3.20;;;7.60;93.90;;;;;;5034961;28;20025;-73
2023/01/15 07:34:10;;;;;;;13.23;2.75;;;7.70;93.80;;;;;;5035917;28;20067;-73
2023/01/15 07:36:36;;;;;;;16.85;2.92;;;7.70;93.50;;;;;;5038686;28;20494;-73
2023/01/15 07:39:07;;;;;;;12.70;2.60;;;7.70;93.40;;;;;;5036397;28;20636;-72
2023/01/15 07:49:49;;;;;;;10.90;2.83;;;7.60;93.30;;;;;;5035328;28;20044;-73
2023/01/15 07:52:17;;;;;;;9.68;2.20;;;7.60;93.30;;;;;;5042378;28;20491;-72
2023/01/15 07:54:44;;;;;;;9.48;1.80;;;7.60;93.00;;;;;;5030779;28;20120;-72
2023/01/15 07:57:11;;;;;;;11.90;1.85;;;7.50;93.00;;;;;;5051690;28;20029;-73
2023/01/15 07:59:37;;;;;;;13.30;2.28;;;7.50;93.10;;;;;;5052207;28;20020;-71
2023/01/15 08:02:03;;;;;;;7.75;1.95;;;7.50;93.10;;;;;;5063405;28;20020;-72
2023/01/15 08:04:29;;;;;;;12.55;2.60;;;7.50;92.90;;;;;;5041299;28;20065;-71
2023/01/15 08:06:55;;;;;;;9.93;1.98;;;7.40;92.60;;;;;;5052108;28;20029;-73
2023/01/15 08:09:20;;;;;;;7.07;2.25;;;7.30;92.50;;;;;;5044419;28;20101;-72
2023/01/15 08:17:14;;;;;;;15.55;2.53;;;7.20;92.90;;;;;;5048424;28;20094;-72
2023/01/15 08:19:40;;;;;;;6.72;1.38;;;7.20;92.80;;;;;;5016631;28;20025;-72
2023/01/15 08:22:06;;;;;;;10.82;1.65;;;7.20;92.80;;;;;;5039542;28;20036;-72
2023/01/15 08:24:31;;;;;;;14.98;2.40;;;7.10;93.00;;;;;;5034049;28;20029;-72
2023/01/15 08:26:57;;;;;;;9.43;2.33;;;7.10;93.00;;;;;;5047974;28;20043;-72
2023/01/15 08:29:22;;;;;;;14.32;2.03;;;7.20;93.20;;;;;;5049577;28;20543;-72
2023/01/15 08:31:48;;;;;;;11.25;1.95;;;7.60;92.40;;;;;;5041552;28;20013;-71
2023/01/15 08:34:14;;;;;;;7.97;2.35;;;8.00;91.60;;;;;;5038769;28;20070;-72
2023/01/15 08:36:39;;;;;;;10.45;1.90;;;8.40;90.60;;;;;;5039491;28;20098;-71
2023/01/15 08:39:05;;;;;;;14.65;1.83;;;8.80;88.70;;;;;;5021265;28;20506;-70
2023/01/15 08:41:31;;;;;;;13.77;2.25;;;9.00;85.90;;;;;;5045055;28;20032;-72
2023/01/15 08:43:56;;;;;;;9.77;1.98;;;9.20;85.70;;;;;;5047501;28;20024;-72
2023/01/15 08:46:22;;;;;;;18.48;3.25;;;9.30;84.20;;;;;;5036851;28;20036;-70
2023/01/15 08:48:48;;;;;;;16.67;2.83;;;9.40;82.90;;;;;;5036987;28;20901;-71
2023/01/15 08:51:14;;;;;;;8.32;2.45;;;9.60;82.50;;;;;;5038361;28;20018;-71
2023/01/15 08:53:40;;;;;;;6.00;2.05;;;9.80;81.80;;;;;;5044212;28;20021;-71
2023/01/15 08:56:17;;;;;;;8.82;1.80;;;9.90;82.10;;;;;;5036113;28;20036;-71
2023/01/15 08:58:43;;;;;;;7.93;1.95;;;10.10;78.80;;;;;;5049326;28;20128;-72
2023/01/15 09:01:14;;;;;;;7.22;2.28;;;10.20;79.70;;;;;;5028756;28;20036;-72
2023/01/15 09:03:41;;;;;;;9.57;2.15;;;10.20;80.30;;;;;;5042663;28;20056;-72
2023/01/15 09:06:06;;;;;;;10.52;1.55;;;10.20;77.60;;;;;;5025772;28;20030;-72
2023/01/15 09:08:32;;;;;;;6.07;1.70;;;10.20;76.70;;;;;;5040058;28;20034;-73
2023/01/15 09:11:00;;;;;;;11.80;2.70;;;10.30;76.70;;;;;;5022072;28;20124;-72
2023/01/15 09:13:28;;;;;;;15.10;2.00;;;10.30;76.70;;;;;;5026554;28;20014;-74
2023/01/15 09:15:54;;;;;;;11.65;2.08;;;10.30;76.20;;;;;;5043741;28;20103;-73
2023/01/15 09:18:19;;;;;;;10.57;1.73;;;10.40;76.40;;;;;;5033780;28;20163;-72
2023/01/15 09:20:46;;;;;;;8.73;2.35;;;10.60;74.40;;;;;;5028529;28;20025;-71
2023/01/15 09:23:11;;;;;;;10.63;1.75;;;10.60;74.10;;;;;;5029224;28;20039;-73
2023/01/15 09:25:37;;;;;;;7.15;1.83;;;10.70;74.20;;;;;;5036280;28;20040;-73
2023/01/15 09:28:03;;;;;;;9.02;1.75;;;10.80;74.20;;;;;;5051299;28;20148;-74
2023/01/15 09:30:29;;;;;;;7.63;2.10;;;10.90;76.60;;;;;;5044411;28;20075;-73
2023/01/15 09:32:55;;;;;;;7.47;1.63;;;11.00;75.10;;;;;;5028012;28;20064;-75
2023/01/15 09:35:21;;;;;;;9.50;1.77;;;11.00;71.60;;;;;;5051665;28;20500;-73
2023/01/15 09:37:52;;;;;;;9.63;2.55;;;10.90;73.00;;;;;;5033584;28;20032;-73
2023/01/15 09:40:49;;;;;;;14.63;2.00;;;10.80;74.80;;;;;;5053070;28;20021;-72
2023/01/15 09:43:37;;;;;;;12.38;2.47;;;10.90;73.50;;;;;;5032238;28;20080;-72
2023/01/15 09:46:11;;;;;;;10.55;1.88;;;10.90;74.40;;;;;;5052168;28;20514;-73
2023/01/15 09:48:55;;;;;;;11.65;2.78;;;10.90;72.70;;;;;;5036296;28;20467;-72
2023/01/15 09:51:27;;;;;;;8.50;1.63;;;10.80;73.50;;;;;;5033243;28;20423;-73
2023/01/15 09:54:06;;;;;;;10.10;1.98;;;11.00;76.30;;;;;;5035756;28;20031;-73
2023/01/15 09:56:35;;;;;;;13.48;2.88;;;11.10;74.80;;;;;;5050903;28;20028;-72
2023/01/15 09:59:15;;;;;;;11.32;1.75;;;11.10;74.80;;;;;;5047174;28;20021;-72
2023/01/15 10:01:42;;;;;;;8.35;2.30;;;11.10;75.60;;;;;;5033696;28;20057;-72
2023/01/15 10:04:30;;;;;;;9.07;2.38;;;11.00;76.60;;;;;;5034262;28;20681;-72
2023/01/15 10:07:11;;;;;;;11.68;2.15;;;11.10;74.60;;;;;;5034382;28;20887;-74
2023/01/15 10:09:40;;;;;;;8.40;1.73;;;11.10;73.50;;;;;;5038510;28;20021;-74
2023/01/15 10:12:34;;;;;;;11.85;1.95;;;11.20;74.80;;;;;;5048407;28;20038;-73
2023/01/15 10:15:21;;;;;;;9.05;1.80;;;11.20;73.70;;;;;;5043643;28;20029;-73
2023/01/15 10:17:52;;;;;;;11.15;1.92;;;11.00;73.80;;;;;;5039441;28;20025;-73
2023/01/15 10:20:53;;;;;;;10.75;2.03;;;11.10;73.90;;;;;;5034635;28;20024;-74
2023/01/15 10:23:34;;;;;;;11.77;2.22;;;11.30;74.40;;;;;;4996919;28;20323;-71
2023/01/15 10:26:25;;;;;;;9.15;1.92;;;11.50;75.00;;;;;;5044324;28;20526;-73
2023/01/15 10:28:57;;;;;;;11.85;2.25;;;11.50;71.60;;;;;;5028534;28;20047;-74
2023/01/15 10:31:38;;;;;;;8.18;1.60;;;11.40;75.00;;;;;;5037395;28;20060;-73
2023/01/15 10:34:12;;;;;;;12.50;2.45;;;11.20;73.50;;;;;;5033462;28;20029;-72
2023/01/15 10:36:54;;;;;;;15.32;2.17;;;11.10;75.60;;;;;;5052076;28;20104;-73
2023/01/15 10:39:36;;;;;;;11.27;1.92;;;11.20;74.40;;;;;;5037703;28;20032;-73
2023/01/15 10:42:30;;;;;;;10.63;2.13;;;11.40;75.00;;;;;;5034587;28;20060;-75
2023/01/15 10:45:19;;;;;;;11.98;1.77;;;11.40;71.40;;;;;;5028314;28;20550;-73
2023/01/15 10:47:52;;;;;;;10.38;2.25;;;11.40;72.30;;;;;;5034274;28;20503;-72
2023/01/15 10:50:25;;;;;;;7.38;1.40;;;11.20;74.90;;;;;;5033826;28;20067;-74
2023/01/15 10:53:01;;;;;;;12.57;1.85;;;10.90;72.70;;;;;;5042569;28;20109;-74
2023/01/15 10:55:35;;;;;;;9.90;1.90;;;10.70;77.30;;;;;;5035865;28;20029;-73
2023/01/15 10:58:32;;;;;;;8.32;1.90;;;10.60;74.50;;;;;;5037523;28;20045;-73
2023/01/15 11:01:04;;;;;;;11.77;2.03;;;10.50;74.40;;;;;;5043738;28;20443;-72
2023/01/15 11:03:38;;;;;;;10.57;2.25;;;10.30;79.00;;;;;;5042076;28;20025;-71
2023/01/15 11:06:05;;;;;;;13.43;2.90;;;10.10;76.60;;;;;;5036774;28;20044;-72
2023/01/15 11:08:32;;;;;;;9.80;2.63;;;9.90;78.40;;;;;;5042170;28;20057;-72
2023/01/15 11:11:13;;;;;;;8.45;1.98;;;9.70;77.00;;;;;;5037668;28;20041;-73
2023/01/15 11:19:36;;;;;;;10.18;1.60;;;9.40;79.00;;;;;;5054666;28;20047;-73
2023/01/15 11:22:08;;;;;;;8.80;2.00;;;9.60;79.30;;;;;;5043913;28;20055;-73
2023/01/15 11:24:37;;;;;;;11.93;2.75;;;9.70;78.60;;;;;;5047815;28;20033;-71
2023/01/15 11:27:05;;;;;;;12.50;2.17;;;9.70;78.70;;;;;;5040948;28;20547;-73
2023/01/15 11:29:35;;;;;;;14.70;2.53;;;9.60;78.70;;;;;;4999770;28;1068760;-73
2023/01/15 11:32:01;;;;;;;14.88;2.40;;;9.50;82.40;;;;;;5027019;28;20031;-72
2023/01/15 11:34:27;;;;;;;11.30;2.13;;;9.50;81.70;;;;;;5038791;28;20025;-73
2023/01/15 11:37:05;;;;;;;10.02;2.42;;;9.70;83.00;;;;;;5036241;28;20052;-73
2023/01/15 11:39:30;;;;;;;12.10;2.50;;;9.70;82.70;;;;;;5017578;28;20025;-72
2023/01/15 11:53:15;;;;;;;12.05;2.53;;;9.60;82.80;;;;;;5043862;28;20110;-73
2023/01/15 11:55:50;;;;;;;7.82;2.03;;;9.30;82.20;;;;;;5040511;28;20455;-73
2023/01/15 11:58:16;;;;;;;9.57;2.38;;;9.30;84.80;;;;;;5034123;28;20017;-73
2023/01/15 12:00:44;;;;;;;9.23;2.20;;;9.10;86.30;;;;;;5041828;28;20064;-72
2023/01/15 12:03:19;;;;;;;15.98;2.28;;;9.00;88.40;;;;;;5040064;28;20544;-73
2023/01/15 12:05:54;;;;;;;12.05;1.70;;;8.80;90.40;;;;;;5038399;28;20036;-73
2023/01/15 12:08:38;;;;;;;9.25;2.20;;;8.70;90.60;;;;;;5038343;28;20029;-74
2023/01/15 12:11:28;;;;;;;10.38;2.30;;;8.60;90.60;;;;;;5021437;28;20036;-73
2023/01/15 12:14:00;;;;;;;9.65;2.15;;;8.60;90.80;;;;;;5039839;28;20016;-73
2023/01/15 12:16:34;;;;;;;11.27;2.65;;;8.50;90.80;;;;;;5042194;28;20029;-74
2023/01/15 12:19:18;;;;;;;14.57;2.53;;;8.50;91.40;;;;;;5043532;28;20064;-72
2023/01/15 12:22:12;;;;;;;7.60;1.60;;;8.50;91.30;;;;;;5037544;28;20388;-72
2023/01/15 12:24:43;;;;;;;8.07;2.15;;;8.60;90.90;;;;;;5035605;28;20020;-72
2023/01/15 12:27:28;;;;;;;12.02;1.58;;;8.60;90.80;;;;;;5039763;28;20621;-71
2023/01/15 12:30:02;;;;;;;12.63;2.03;;;8.60;90.20;;;;;;5042892;28;20272;-72
2023/01/15 12:32:36;;;;;;;14.55;3.17;;;8.70;90.20;;;;;;5032817;28;20033;-72
2023/01/15 12:35:26;;;;;;;12.20;3.05;;;8.80;90.30;;;;;;5016358;28;20102;-72
2023/01/15 12:38:23;;;;;;;10.68;2.10;;;8.80;90.30;;;;;;5022209;28;20098;-73
2023/01/15 12:41:13;;;;;;;12.35;1.52;;;8.70;90.70;;;;;;5038747;28;20045;-73
2023/01/15 12:46:29;;;;;;;8.88;1.30;;;8.40;91.40;;;;;;5047649;28;20149;-72
2023/01/15 12:49:02;;;;;;;9.80;1.85;;;8.20;92.20;;;;;;5020926;28;20116;-71
2023/01/15 12:51:34;;;;;;;10.20;1.92;;;8.10;92.80;;;;;;5029367;28;20372;-72
2023/01/15 12:54:09;;;;;;;11.65;1.90;;;8.20;93.60;;;;;;5035841;28;20594;-70
2023/01/15 12:56:54;;;;;;;9.60;1.98;;;8.10;93.50;;;;;;5016757;28;20018;-71
2023/01/15 12:59:38;;;;;;;9.98;1.77;;;8.00;92.90;;;;;;5027540;28;20025;-72
2023/01/15 13:02:30;;;;;;;8.77;1.75;;;8.00;93.70;;;;;;5027169;28;20025;-71
2023/01/15 13:05:19;;;;;;;8.10;1.40;;;7.90;93.80;;;;;;5003758;28;20448;-72
2023/01/15 13:08:01;;;;;;;7.50;2.00;;;7.90;93.60;;;;;;5026182;28;20828;-71
2023/01/15 13:10:33;;;;;;;8.02;2.10;;;7.80;93.60;;;;;;5026060;28;20083;-71
2023/01/15 13:13:14;;;;;;;7.35;2.17;;;7.80;93.50;;;;;;5024650;28;20120;-73
2023/01/15 13:16:24;;;;;;;10.98;2.05;;;7.90;93.30;;;;;;5029067;28;20104;-72
2023/01/15 13:19:02;;;;;;;8.55;1.67;;;8.00;93.90;;;;;;4956240;28;20549;-70
2023/01/15 13:21:32;;;;;;;7.65;1.60;;;8.00;93.20;;;;;;4956376;28;20050;-71
2023/01/15 13:24:22;;;;;;;5.43;1.48;;;8.10;92.80;;;;;;4994659;28;20055;-71
2023/01/15 13:26:56;;;;;;;10.55;1.80;;;8.10;93.10;;;;;;5028951;28;20138;-72
2023/01/15 13:29:55;;;;;;;13.95;2.13;;;8.20;92.90;;;;;;5024431;28;20054;-72
2023/01/15 13:32:31;;;;;;;14.23;2.20;;;8.10;92.30;;;;;;5031499;28;20104;-71
2023/01/15 13:35:03;;;;;;;10.10;1.73;;;8.10;93.40;;;;;;5019239;28;20029;-73
2023/01/15 13:37:47;;;;;;;10.60;2.00;;;8.00;93.30;;;;;;5011973;28;20040;-73
2023/01/15 13:40:25;;;;;;;10.68;2.20;;;8.00;93.00;;;;;;5030882;28;20840;-71
2023/01/15 13:42:52;;;;;;;7.70;1.67;;;8.00;93.20;;;;;;5033692;28;20064;-70
2023/01/15 13:45:18;;;;;;;8.25;1.73;;;8.10;93.00;;;;;;5034799;28;20057;-73
2023/01/15 13:47:47;;;;;;;8.05;1.60;;;8.10;92.80;;;;;;5030518;28;20179;-71
2023/01/15 13:50:27;;;;;;;9.57;2.20;;;8.10;92.80;;;;;;5031362;28;20030;-73
2023/01/15 13:53:24;;;;;;;16.27;2.10;;;8.10;93.20;;;;;;5033850;28;20032;-71
2023/01/15 13:56:04;;;;;;;5.78;1.50;;;8.10;93.60;;;;;;5008005;28;20511;-70
2023/01/15 13:58:32;;;;;;;14.60;2.27;;;8.10;93.40;;;;;;5033653;28;20063;-72
2023/01/15 14:01:29;;;;;;;13.60;2.63;;;8.00;93.60;;;;;;5029781;28;20040;-70